sensor_id;sensor_type;location;lat;lon;timestamp;pressure;altitude;pressure_sealevel;temperature;humidity
49423;BME280;36998;51.974;20.150;2022-11-20T00:01:59;99904.94;;;1.60;46.55
49423;BME280;36998;51.974;20.150;2022-11-20T00:04:24;99906.75;;;1.60;46.81
49423;BME280;36998;51.974;20.150;2022-11-20T00:06:50;99903.91;;;1.50;46.71
49423;BME280;36998;51.974;20.150;2022-11-20T00:09:15;99895.91;;;1.39;46.82
49423;BME280;36998;51.974;20.150;2022-11-20T00:11:41;99889.97;;;1.35;46.96
49423;BME280;36998;51.974;20.150;2022-11-20T00:14:08;99890.31;;;1.31;46.93
49423;BME280;36998;51.974;20.150;2022-11-20T00:16:34;99891.84;;;1.22;47.10
49423;BME280;36998;51.974;20.150;2022-11-20T00:19:00;99887.94;;;1.15;47.12
49423;BME280;36998;51.974;20.150;2022-11-20T00:21:27;99887.41;;;1.10;47.63
49423;BME280;36998;51.974;20.150;2022-11-20T00:23:54;99888.47;;;1.07;47.39
49423;BME280;36998;51.974;20.150;2022-11-20T00:26:21;99887.25;;;1.00;47.37
49423;BME280;36998;51.974;20.150;2022-11-20T00:28:55;99890.97;;;0.98;47.38
49423;BME280;36998;51.974;20.150;2022-11-20T00:31:21;99888.88;;;0.90;47.78
49423;BME280;36998;51.974;20.150;2022-11-20T00:33:47;99889.22;;;0.85;47.89
49423;BME280;36998;51.974;20.150;2022-11-20T00:36:16;99879.53;;;0.84;47.88
49423;BME280;36998;51.974;20.150;2022-11-20T00:38:42;99889.09;;;0.87;47.87
49423;BME280;36998;51.974;20.150;2022-11-20T00:41:10;99887.41;;;0.86;47.99
49423;BME280;36998;51.974;20.150;2022-11-20T00:43:36;99893.97;;;0.93;47.67
49423;BME280;36998;51.974;20.150;2022-11-20T00:46:10;99890.75;;;1.01;47.97
49423;BME280;36998;51.974;20.150;2022-11-20T00:48:37;99898.09;;;0.97;47.83
49423;BME280;36998;51.974;20.150;2022-11-20T00:51:03;99899.47;;;1.03;47.80
49423;BME280;36998;51.974;20.150;2022-11-20T00:53:29;99890.41;;;1.05;47.76
49423;BME280;36998;51.974;20.150;2022-11-20T00:56:01;99886.03;;;1.04;48.13
49423;BME280;36998;51.974;20.150;2022-11-20T00:58:32;99876.91;;;1.08;47.99
49423;BME280;36998;51.974;20.150;2022-11-20T01:01:13;99885.09;;;1.05;48.21
49423;BME280;36998;51.974;20.150;2022-11-20T01:03:41;99876.09;;;0.95;48.08
49423;BME280;36998;51.974;20.150;2022-11-20T01:06:11;99877.16;;;0.92;48.42
49423;BME280;36998;51.974;20.150;2022-11-20T01:08:37;99870.25;;;0.90;48.26
49423;BME280;36998;51.974;20.150;2022-11-20T01:11:08;99873.97;;;0.87;48.51
49423;BME280;36998;51.974;20.150;2022-11-20T01:13:34;99878.06;;;0.80;48.34
49423;BME280;36998;51.974;20.150;2022-11-20T01:16:11;99871.97;;;0.78;48.49
49423;BME280;36998;51.974;20.150;2022-11-20T01:18:39;99869.16;;;0.68;48.98
49423;BME280;36998;51.974;20.150;2022-11-20T01:21:08;99870.22;;;0.66;49.04
49423;BME280;36998;51.974;20.150;2022-11-20T01:23:35;99867.03;;;0.61;48.87
49423;BME280;36998;51.974;20.150;2022-11-20T01:26:06;99867.78;;;0.63;49.23
49423;BME280;36998;51.974;20.150;2022-11-20T01:28:32;99869.41;;;0.65;49.02
49423;BME280;36998;51.974;20.150;2022-11-20T01:30:59;99864.69;;;0.69;49.45
49423;BME280;36998;51.974;20.150;2022-11-20T01:33:25;99855.84;;;0.68;49.24
49423;BME280;36998;51.974;20.150;2022-11-20T01:35:51;99853.94;;;0.70;49.43
49423;BME280;36998;51.974;20.150;2022-11-20T01:38:17;99855.97;;;0.67;49.55
49423;BME280;36998;51.974;20.150;2022-11-20T01:40:43;99858.75;;;0.65;49.64
49423;BME280;36998;51.974;20.150;2022-11-20T01:43:19;99860.31;;;0.68;49.67
49423;BME280;36998;51.974;20.150;2022-11-20T01:48:38;99860.34;;;0.55;49.75
49423;BME280;36998;51.974;20.150;2022-11-20T01:51:10;99859.09;;;0.48;49.96
49423;BME280;36998;51.974;20.150;2022-11-20T01:53:38;99856.03;;;0.41;49.88
49423;BME280;36998;51.974;20.150;2022-11-20T01:56:05;99852.31;;;0.44;50.02
49423;BME280;36998;51.974;20.150;2022-11-20T01:58:35;99849.75;;;0.42;50.05
49423;BME280;36998;51.974;20.150;2022-11-20T02:01:04;99855.72;;;0.46;49.90
49423;BME280;36998;51.974;20.150;2022-11-20T02:03:29;99854.97;;;0.44;49.70
49423;BME280;36998;51.974;20.150;2022-11-20T02:06:11;99865.81;;;0.41;50.09
49423;BME280;36998;51.974;20.150;2022-11-20T02:08:38;99867.72;;;0.26;49.86
49423;BME280;36998;51.974;20.150;2022-11-20T02:11:04;99874.56;;;0.17;50.21
49423;BME280;36998;51.974;20.150;2022-11-20T02:13:29;99879.75;;;0.19;50.08
49423;BME280;36998;51.974;20.150;2022-11-20T02:16:23;99879.88;;;0.17;50.25
49423;BME280;36998;51.974;20.150;2022-11-20T02:18:50;99875.41;;;0.05;50.05
49423;BME280;36998;51.974;20.150;2022-11-20T02:21:49;99872.75;;;0.05;50.31
49423;BME280;36998;51.974;20.150;2022-11-20T02:24:19;99875.59;;;-0.11;50.30
49423;BME280;36998;51.974;20.150;2022-11-20T02:26:59;99868.69;;;-0.13;50.18
49423;BME280;36998;51.974;20.150;2022-11-20T02:29:37;99880.69;;;-0.20;50.48
49423;BME280;36998;51.974;20.150;2022-11-20T02:32:04;99879.53;;;-0.29;50.69
49423;BME280;36998;51.974;20.150;2022-11-20T02:34:30;99877.94;;;-0.32;50.72
49423;BME280;36998;51.974;20.150;2022-11-20T02:36:56;99880.25;;;-0.27;50.38
49423;BME280;36998;51.974;20.150;2022-11-20T02:39:24;99868.81;;;-0.28;50.69
49423;BME280;36998;51.974;20.150;2022-11-20T02:41:53;99871.88;;;-0.34;50.84
49423;BME280;36998;51.974;20.150;2022-11-20T02:44:18;99871.13;;;-0.49;50.85
49423;BME280;36998;51.974;20.150;2022-11-20T02:46:44;99863.44;;;-0.53;50.78
49423;BME280;36998;51.974;20.150;2022-11-20T02:49:10;99879.25;;;-0.64;51.07
49423;BME280;36998;51.974;20.150;2022-11-20T02:51:35;99866.06;;;-0.66;51.20
49423;BME280;36998;51.974;20.150;2022-11-20T02:54:01;99862.56;;;-0.66;51.25
49423;BME280;36998;51.974;20.150;2022-11-20T02:56:26;99861.84;;;-0.68;51.16
49423;BME280;36998;51.974;20.150;2022-11-20T02:58:52;99863.31;;;-0.77;51.45
49423;BME280;36998;51.974;20.150;2022-11-20T03:01:17;99867.63;;;-0.76;51.26
49423;BME280;36998;51.974;20.150;2022-11-20T03:03:43;99867.75;;;-0.78;51.05
49423;BME280;36998;51.974;20.150;2022-11-20T03:06:08;99865.72;;;-0.87;51.15
49423;BME280;36998;51.974;20.150;2022-11-20T03:08:34;99857.38;;;-0.95;51.37
49423;BME280;36998;51.974;20.150;2022-11-20T03:11:05;99863.84;;;-0.99;51.52
49423;BME280;36998;51.974;20.150;2022-11-20T03:13:31;99853.84;;;-1.08;51.43
49423;BME280;36998;51.974;20.150;2022-11-20T03:15:57;99852.06;;;-1.08;51.49
49423;BME280;36998;51.974;20.150;2022-11-20T03:18:22;99852.16;;;-1.09;51.31
49423;BME280;36998;51.974;20.150;2022-11-20T03:20:48;99850.84;;;-1.16;51.51
49423;BME280;36998;51.974;20.150;2022-11-20T03:23:13;99852.56;;;-1.15;51.67
49423;BME280;36998;51.974;20.150;2022-11-20T03:25:39;99847.16;;;-1.14;51.57
49423;BME280;36998;51.974;20.150;2022-11-20T03:28:04;99855.41;;;-1.19;51.63
49423;BME280;36998;51.974;20.150;2022-11-20T03:30:30;99856.03;;;-1.15;51.75
49423;BME280;36998;51.974;20.150;2022-11-20T03:32:55;99851.38;;;-1.11;51.66
49423;BME280;36998;51.974;20.150;2022-11-20T03:35:21;99859.91;;;-1.06;51.77
49423;BME280;36998;51.974;20.150;2022-11-20T03:37:46;99854.72;;;-1.08;51.88
49423;BME280;36998;51.974;20.150;2022-11-20T03:40:12;99863.53;;;-1.07;51.90
49423;BME280;36998;51.974;20.150;2022-11-20T03:42:37;99858.75;;;-1.02;52.02
49423;BME280;36998;51.974;20.150;2022-11-20T03:45:13;99872.00;;;-1.02;52.29
49423;BME280;36998;51.974;20.150;2022-11-20T03:47:39;99865.00;;;-1.03;52.00
49423;BME280;36998;51.974;20.150;2022-11-20T03:50:05;99862.16;;;-1.00;52.19
49423;BME280;36998;51.974;20.150;2022-11-20T03:52:31;99860.56;;;-1.03;51.98
49423;BME280;36998;51.974;20.150;2022-11-20T03:54:56;99852.72;;;-1.04;52.05
49423;BME280;36998;51.974;20.150;2022-11-20T03:57:22;99852.28;;;-1.11;52.22
49423;BME280;36998;51.974;20.150;2022-11-20T03:59:47;99860.50;;;-1.15;52.39
49423;BME280;36998;51.974;20.150;2022-11-20T04:02:13;99860.31;;;-1.12;52.10
49423;BME280;36998;51.974;20.150;2022-11-20T04:04:38;99863.25;;;-1.17;51.95
49423;BME280;36998;51.974;20.150;2022-11-20T04:07:04;99864.94;;;-1.16;52.13
49423;BME280;36998;51.974;20.150;2022-11-20T04:09:29;99872.34;;;-1.21;52.20
49423;BME280;36998;51.974;20.150;2022-11-20T04:11:54;99863.84;;;-1.26;52.23
49423;BME280;36998;51.974;20.150;2022-11-20T04:14:20;99870.38;;;-1.17;52.03
49423;BME280;36998;51.974;20.150;2022-11-20T04:16:45;99871.41;;;-1.20;52.34
49423;BME280;36998;51.974;20.150;2022-11-20T04:19:14;99874.50;;;-1.13;52.04
49423;BME280;36998;51.974;20.150;2022-11-20T04:21:40;99864.94;;;-1.16;52.13
49423;BME280;36998;51.974;20.150;2022-11-20T04:24:06;99864.31;;;-1.20;52.56
49423;BME280;36998;51.974;20.150;2022-11-20T04:26:32;99856.44;;;-1.21;52.38
49423;BME280;36998;51.974;20.150;2022-11-20T04:28:57;99858.53;;;-1.26;52.33
49423;BME280;36998;51.974;20.150;2022-11-20T04:31:25;99857.72;;;-1.27;52.58
49423;BME280;36998;51.974;20.150;2022-11-20T04:33:51;99856.09;;;-1.29;52.24
49423;BME280;36998;51.974;20.150;2022-11-20T04:36:26;99858.94;;;-1.32;52.47
49423;BME280;36998;51.974;20.150;2022-11-20T04:38:54;99849.56;;;-1.38;52.75
49423;BME280;36998;51.974;20.150;2022-11-20T04:41:23;99856.78;;;-1.40;52.51
49423;BME280;36998;51.974;20.150;2022-11-20T04:43:51;99858.59;;;-1.40;52.77
49423;BME280;36998;51.974;20.150;2022-11-20T04:46:18;99837.47;;;-1.42;52.92
49423;BME280;36998;51.974;20.150;2022-11-20T04:48:44;99851.69;;;-1.43;52.60
49423;BME280;36998;51.974;20.150;2022-11-20T04:51:10;99846.66;;;-1.48;52.89
49423;BME280;36998;51.974;20.150;2022-11-20T04:53:35;99845.63;;;-1.45;52.82
49423;BME280;36998;51.974;20.150;2022-11-20T04:56:07;99841.28;;;-1.46;52.76
49423;BME280;36998;51.974;20.150;2022-11-20T04:58:33;99834.50;;;-1.50;52.89
49423;BME280;36998;51.974;20.150;2022-11-20T05:01:03;99830.31;;;-1.54;53.23
49423;BME280;36998;51.974;20.150;2022-11-20T05:03:28;99826.75;;;-1.53;52.92
49423;BME280;36998;51.974;20.150;2022-11-20T05:05:54;99827.31;;;-1.62;53.35
49423;BME280;36998;51.974;20.150;2022-11-20T05:08:19;99830.94;;;-1.63;53.15
49423;BME280;36998;51.974;20.150;2022-11-20T05:10:45;99825.81;;;-1.67;52.88
49423;BME280;36998;51.974;20.150;2022-11-20T05:13:10;99829.78;;;-1.74;53.03
49423;BME280;36998;51.974;20.150;2022-11-20T05:15:36;99823.63;;;-1.74;53.14
49423;BME280;36998;51.974;20.150;2022-11-20T05:18:01;99824.78;;;-1.78;53.18
49423;BME280;36998;51.974;20.150;2022-11-20T05:20:27;99827.53;;;-1.80;53.01
49423;BME280;36998;51.974;20.150;2022-11-20T05:22:52;99827.91;;;-1.86;53.08
49423;BME280;36998;51.974;20.150;2022-11-20T05:25:17;99834.13;;;-1.87;53.40
49423;BME280;36998;51.974;20.150;2022-11-20T05:27:43;99830.84;;;-1.91;53.06
49423;BME280;36998;51.974;20.150;2022-11-20T05:30:09;99824.69;;;-1.91;53.37
49423;BME280;36998;51.974;20.150;2022-11-20T05:32:35;99824.34;;;-1.99;53.29
49423;BME280;36998;51.974;20.150;2022-11-20T05:35:00;99827.91;;;-2.00;53.49
49423;BME280;36998;51.974;20.150;2022-11-20T05:37:26;99825.38;;;-2.02;53.29
49423;BME280;36998;51.974;20.150;2022-11-20T05:39:51;99818.66;;;-2.07;53.47
49423;BME280;36998;51.974;20.150;2022-11-20T05:42:16;99816.13;;;-2.09;53.33
49423;BME280;36998;51.974;20.150;2022-11-20T05:44:58;99818.84;;;-2.10;53.33
49423;BME280;36998;51.974;20.150;2022-11-20T05:47:25;99814.56;;;-2.13;53.50
49423;BME280;36998;51.974;20.150;2022-11-20T05:49:51;99808.44;;;-2.14;53.38
49423;BME280;36998;51.974;20.150;2022-11-20T05:52:16;99812.31;;;-2.19;53.46
49423;BME280;36998;51.974;20.150;2022-11-20T05:54:41;99805.44;;;-2.22;53.67
49423;BME280;36998;51.974;20.150;2022-11-20T05:57:07;99803.22;;;-2.29;53.94
49423;BME280;36998;51.974;20.150;2022-11-20T05:59:32;99814.88;;;-2.32;53.88
49423;BME280;36998;51.974;20.150;2022-11-20T06:01:58;99821.00;;;-2.31;54.15
49423;BME280;36998;51.974;20.150;2022-11-20T06:04:23;99822.13;;;-2.36;54.24
49423;BME280;36998;51.974;20.150;2022-11-20T06:06:49;99813.81;;;-2.29;54.02
49423;BME280;36998;51.974;20.150;2022-11-20T06:09:14;99815.53;;;-2.28;53.83
49423;BME280;36998;51.974;20.150;2022-11-20T06:11:40;99811.75;;;-2.24;53.94
49423;BME280;36998;51.974;20.150;2022-11-20T06:14:05;99816.19;;;-2.25;53.87
49423;BME280;36998;51.974;20.150;2022-11-20T06:16:31;99823.66;;;-2.17;54.14
49423;BME280;36998;51.974;20.150;2022-11-20T06:18:56;99823.56;;;-2.16;54.00
49423;BME280;36998;51.974;20.150;2022-11-20T06:21:22;99814.56;;;-2.13;53.81
49423;BME280;36998;51.974;20.150;2022-11-20T06:23:49;99812.03;;;-2.15;53.91
49423;BME280;36998;51.974;20.150;2022-11-20T06:26:24;99812.97;;;-2.01;53.96
49423;BME280;36998;51.974;20.150;2022-11-20T06:28:50;99820.06;;;-2.02;54.03
49423;BME280;36998;51.974;20.150;2022-11-20T06:31:18;99817.31;;;-2.00;54.31
49423;BME280;36998;51.974;20.150;2022-11-20T06:33:45;99817.72;;;-1.92;54.17
49423;BME280;36998;51.974;20.150;2022-11-20T06:36:12;99819.50;;;-1.93;54.29
49423;BME280;36998;51.974;20.150;2022-11-20T06:38:39;99817.72;;;-1.92;54.31
49423;BME280;36998;51.974;20.150;2022-11-20T06:41:07;99812.31;;;-1.91;54.91
49423;BME280;36998;51.974;20.150;2022-11-20T06:43:34;99818.38;;;-1.89;54.63
49423;BME280;36998;51.974;20.150;2022-11-20T06:45:59;99812.22;;;-1.89;55.04
49423;BME280;36998;51.974;20.150;2022-11-20T06:48:26;99815.59;;;-1.87;55.10
49423;BME280;36998;51.974;20.150;2022-11-20T06:50:52;99811.66;;;-1.80;55.06
49423;BME280;36998;51.974;20.150;2022-11-20T06:53:17;99811.25;;;-1.74;55.03
49423;BME280;36998;51.974;20.150;2022-11-20T06:55:44;99803.09;;;-1.71;55.31
49423;BME280;36998;51.974;20.150;2022-11-20T06:58:11;99808.66;;;-1.61;55.40
49423;BME280;36998;51.974;20.150;2022-11-20T07:00:36;99810.09;;;-1.55;55.00
49423;BME280;36998;51.974;20.150;2022-11-20T07:03:06;99805.88;;;-1.45;55.13
49423;BME280;36998;51.974;20.150;2022-11-20T07:05:32;99808.53;;;-1.45;55.15
49423;BME280;36998;51.974;20.150;2022-11-20T07:07:58;99798.50;;;-1.40;55.27
49423;BME280;36998;51.974;20.150;2022-11-20T07:10:24;99793.47;;;-1.30;55.28
49423;BME280;36998;51.974;20.150;2022-11-20T07:12:53;99798.13;;;-1.21;55.38
49423;BME280;36998;51.974;20.150;2022-11-20T07:15:20;99796.28;;;-1.06;55.08
49423;BME280;36998;51.974;20.150;2022-11-20T07:17:46;99796.84;;;-1.01;55.18
49423;BME280;36998;51.974;20.150;2022-11-20T07:20:12;99790.44;;;-0.84;55.10
49423;BME280;36998;51.974;20.150;2022-11-20T07:22:38;99785.66;;;-0.66;54.75
49423;BME280;36998;51.974;20.150;2022-11-20T07:25:04;99784.44;;;-0.48;54.99
49423;BME280;36998;51.974;20.150;2022-11-20T07:27:30;99773.81;;;-0.35;55.02
49423;BME280;36998;51.974;20.150;2022-11-20T07:29:56;99773.91;;;-0.11;54.67
49423;BME280;36998;51.974;20.150;2022-11-20T07:32:22;99774.06;;;0.11;54.26
49423;BME280;36998;51.974;20.150;2022-11-20T07:34:48;99770.75;;;0.33;53.99
49423;BME280;36998;51.974;20.150;2022-11-20T07:37:14;99771.72;;;0.56;53.88
49423;BME280;36998;51.974;20.150;2022-11-20T07:39:39;99770.69;;;0.70;53.46
49423;BME280;36998;51.974;20.150;2022-11-20T07:42:06;99773.69;;;0.89;53.36
49423;BME280;36998;51.974;20.150;2022-11-20T07:44:36;99774.13;;;1.07;53.26
49423;BME280;36998;51.974;20.150;2022-11-20T07:47:01;99764.84;;;1.24;52.89
49423;BME280;36998;51.974;20.150;2022-11-20T07:49:27;99766.25;;;1.41;52.55
49423;BME280;36998;51.974;20.150;2022-11-20T07:51:52;99763.84;;;1.49;52.37
49423;BME280;36998;51.974;20.150;2022-11-20T07:54:19;99753.22;;;1.60;52.22
49423;BME280;36998;51.974;20.150;2022-11-20T07:56:46;99752.28;;;1.84;51.58
49423;BME280;36998;51.974;20.150;2022-11-20T07:59:12;99752.75;;;2.00;51.52
49423;BME280;36998;51.974;20.150;2022-11-20T08:01:39;99748.84;;;2.16;51.46
49423;BME280;36998;51.974;20.150;2022-11-20T08:04:04;99749.84;;;2.26;51.00
49423;BME280;36998;51.974;20.150;2022-11-20T08:06:30;99737.69;;;2.33;50.94
49423;BME280;36998;51.974;20.150;2022-11-20T08:08:55;99735.75;;;2.35;50.93
49423;BME280;36998;51.974;20.150;2022-11-20T08:11:21;99734.19;;;2.32;50.49
49423;BME280;36998;51.974;20.150;2022-11-20T08:14:05;99732.50;;;2.20;50.39
49423;BME280;36998;51.974;20.150;2022-11-20T08:16:45;99740.13;;;2.25;50.50
49423;BME280;36998;51.974;20.150;2022-11-20T08:19:12;99746.19;;;2.27;50.55
49423;BME280;36998;51.974;20.150;2022-11-20T08:21:37;99744.72;;;2.34;50.29
49423;BME280;36998;51.974;20.150;2022-11-20T08:24:03;99735.97;;;2.43;49.90
49423;BME280;36998;51.974;20.150;2022-11-20T08:26:28;99739.97;;;2.49;49.95
49423;BME280;36998;51.974;20.150;2022-11-20T08:28:55;99734.25;;;2.53;49.90
49423;BME280;36998;51.974;20.150;2022-11-20T08:31:22;99730.34;;;2.57;49.70
49423;BME280;36998;51.974;20.150;2022-11-20T08:33:48;99733.34;;;2.75;49.41
49423;BME280;36998;51.974;20.150;2022-11-20T08:36:13;99721.63;;;2.88;49.06
49423;BME280;36998;51.974;20.150;2022-11-20T08:38:40;99719.59;;;2.91;49.21
49423;BME280;36998;51.974;20.150;2022-11-20T08:41:06;99712.75;;;2.98;48.73
49423;BME280;36998;51.974;20.150;2022-11-20T08:43:59;99721.28;;;3.13;48.94
49423;BME280;36998;51.974;20.150;2022-11-20T08:46:26;99718.16;;;3.29;48.73
49423;BME280;36998;51.974;20.150;2022-11-20T08:48:52;99715.81;;;3.36;48.26
49423;BME280;36998;51.974;20.150;2022-11-20T08:51:19;99712.50;;;3.43;48.11
49423;BME280;36998;51.974;20.150;2022-11-20T08:53:45;99715.59;;;3.48;48.28
49423;BME280;36998;51.974;20.150;2022-11-20T08:56:11;99713.56;;;3.62;47.95
49423;BME280;36998;51.974;20.150;2022-11-20T08:58:37;99708.09;;;3.63;47.99
49423;BME280;36998;51.974;20.150;2022-11-20T09:01:03;99702.88;;;3.62;47.77
49423;BME280;36998;51.974;20.150;2022-11-20T09:03:30;99698.38;;;3.62;47.64
49423;BME280;36998;51.974;20.150;2022-11-20T09:06:03;99700.41;;;3.70;47.01
49423;BME280;36998;51.974;20.150;2022-11-20T09:08:29;99690.78;;;3.58;47.22
49423;BME280;36998;51.974;20.150;2022-11-20T09:10:57;99695.50;;;3.44;46.96
49423;BME280;36998;51.974;20.150;2022-11-20T09:13:23;99696.59;;;3.42;47.04
49423;BME280;36998;51.974;20.150;2022-11-20T09:16:00;99693.63;;;3.35;47.18
49423;BME280;36998;51.974;20.150;2022-11-20T09:18:27;99699.09;;;3.13;47.01
49423;BME280;36998;51.974;20.150;2022-11-20T09:20:56;99696.25;;;3.04;46.89
49423;BME280;36998;51.974;20.150;2022-11-20T09:23:22;99700.38;;;2.97;47.04
49423;BME280;36998;51.974;20.150;2022-11-20T09:25:48;99699.53;;;2.97;47.16
49423;BME280;36998;51.974;20.150;2022-11-20T09:28:13;99695.44;;;2.93;47.07
49423;BME280;36998;51.974;20.150;2022-11-20T09:30:39;99692.78;;;2.93;47.21
49423;BME280;36998;51.974;20.150;2022-11-20T09:33:05;99693.34;;;2.96;47.09
49423;BME280;36998;51.974;20.150;2022-11-20T09:35:31;99691.41;;;2.98;47.17
49423;BME280;36998;51.974;20.150;2022-11-20T09:37:57;99693.09;;;2.99;46.92
49423;BME280;36998;51.974;20.150;2022-11-20T09:40:25;99682.16;;;3.02;47.14
49423;BME280;36998;51.974;20.150;2022-11-20T09:43:14;99680.56;;;3.11;46.78
49423;BME280;36998;51.974;20.150;2022-11-20T09:48:32;99684.19;;;3.10;47.13
49423;BME280;36998;51.974;20.150;2022-11-20T09:56:22;99685.09;;;2.99;46.70
49423;BME280;36998;51.974;20.150;2022-11-20T09:58:52;99689.19;;;3.03;46.78
49423;BME280;36998;51.974;20.150;2022-11-20T10:01:22;99683.34;;;3.10;46.69
49423;BME280;36998;51.974;20.150;2022-11-20T10:04:04;99685.06;;;3.11;46.38
49423;BME280;36998;51.974;20.150;2022-11-20T10:06:41;99692.31;;;3.09;46.69
49423;BME280;36998;51.974;20.150;2022-11-20T10:11:53;99679.41;;;3.14;46.25
49423;BME280;36998;51.974;20.150;2022-11-20T10:14:30;99675.91;;;3.13;46.18
49423;BME280;36998;51.974;20.150;2022-11-20T10:20:00;99692.63;;;3.36;46.15
49423;BME280;36998;51.974;20.150;2022-11-20T10:22:48;99688.66;;;3.51;45.97
49423;BME280;36998;51.974;20.150;2022-11-20T10:25:15;99681.34;;;3.54;45.86
49423;BME280;36998;51.974;20.150;2022-11-20T10:27:55;99668.97;;;3.52;45.69
49423;BME280;36998;51.974;20.150;2022-11-20T10:30:22;99677.22;;;3.70;45.53
49423;BME280;36998;51.974;20.150;2022-11-20T10:33:16;99672.53;;;3.63;45.61
49423;BME280;36998;51.974;20.150;2022-11-20T10:38:14;99672.25;;;3.66;45.81
49423;BME280;36998;51.974;20.150;2022-11-20T10:40:48;99658.91;;;3.66;45.37
49423;BME280;36998;51.974;20.150;2022-11-20T10:43:32;99663.72;;;3.72;45.77
49423;BME280;36998;51.974;20.150;2022-11-20T10:46:00;99663.06;;;3.80;45.64
49423;BME280;36998;51.974;20.150;2022-11-20T10:48:27;99662.50;;;3.86;45.46
49423;BME280;36998;51.974;20.150;2022-11-20T10:51:05;99656.88;;;3.89;45.23
49423;BME280;36998;51.974;20.150;2022-11-20T10:53:45;99651.16;;;4.03;45.16
49423;BME280;36998;51.974;20.150;2022-11-20T10:56:20;99653.56;;;4.06;45.27
49423;BME280;36998;51.974;20.150;2022-11-20T10:59:32;99650.59;;;3.99;45.12
49423;BME280;36998;51.974;20.150;2022-11-20T11:02:01;99652.13;;;3.92;45.28
49423;BME280;36998;51.974;20.150;2022-11-20T11:07:06;99644.44;;;4.09;44.97
49423;BME280;36998;51.974;20.150;2022-11-20T11:09:38;99647.81;;;4.11;44.74
49423;BME280;36998;51.974;20.150;2022-11-20T11:12:08;99639.78;;;4.11;44.99
49423;BME280;36998;51.974;20.150;2022-11-20T11:17:31;99638.66;;;4.04;45.10
49423;BME280;36998;51.974;20.150;2022-11-20T11:20:16;99632.75;;;4.10;45.01
49423;BME280;36998;51.974;20.150;2022-11-20T11:22:45;99629.25;;;4.19;44.63
49423;BME280;36998;51.974;20.150;2022-11-20T11:27:48;99628.28;;;4.39;44.53
49423;BME280;36998;51.974;20.150;2022-11-20T11:30:16;99633.38;;;4.52;44.07
49423;BME280;36998;51.974;20.150;2022-11-20T11:32:42;99630.97;;;4.68;43.92
49423;BME280;36998;51.974;20.150;2022-11-20T11:35:27;99626.16;;;5.01;43.90
49423;BME280;36998;51.974;20.150;2022-11-20T11:38:02;99618.22;;;5.56;42.76
49423;BME280;36998;51.974;20.150;2022-11-20T11:40:30;99615.72;;;5.82;42.44
49423;BME280;36998;51.974;20.150;2022-11-20T11:42:59;99609.41;;;6.01;42.65
49423;BME280;36998;51.974;20.150;2022-11-20T11:45:25;99593.97;;;6.49;41.84
49423;BME280;36998;51.974;20.150;2022-11-20T11:47:52;99611.50;;;7.57;40.29
49423;BME280;36998;51.974;20.150;2022-11-20T11:50:27;99601.06;;;8.96;37.99
49423;BME280;36998;51.974;20.150;2022-11-20T11:53:02;99598.94;;;10.80;35.70
49423;BME280;36998;51.974;20.150;2022-11-20T12:00:40;99573.63;;;13.63;30.93
49423;BME280;36998;51.974;20.150;2022-11-20T12:03:16;99565.44;;;15.39;29.25
49423;BME280;36998;51.974;20.150;2022-11-20T12:05:49;99556.34;;;17.18;27.25
49423;BME280;36998;51.974;20.150;2022-11-20T12:08:27;99545.16;;;18.90;25.57
49423;BME280;36998;51.974;20.150;2022-11-20T12:10:58;99535.22;;;20.24;23.93
49423;BME280;36998;51.974;20.150;2022-11-20T12:16:00;99538.03;;;20.41;22.98
49423;BME280;36998;51.974;20.150;2022-11-20T12:18:28;99541.75;;;21.31;22.28
49423;BME280;36998;51.974;20.150;2022-11-20T12:21:27;99530.66;;;21.59;21.98
49423;BME280;36998;51.974;20.150;2022-11-20T12:24:34;99522.84;;;21.51;21.82
49423;BME280;36998;51.974;20.150;2022-11-20T12:27:28;99536.72;;;19.27;22.91
49423;BME280;36998;51.974;20.150;2022-11-20T12:30:09;99534.91;;;17.40;24.27
49423;BME280;36998;51.974;20.150;2022-11-20T12:32:54;99531.28;;;16.46;25.32
49423;BME280;36998;51.974;20.150;2022-11-20T12:37:03;99528.31;;;15.64;26.25
49423;BME280;36998;51.974;20.150;2022-11-20T12:39:07;99525.06;;;15.29;25.90
49423;BME280;36998;51.974;20.150;2022-11-20T12:41:50;99523.78;;;16.03;24.95
49423;BME280;36998;51.974;20.150;2022-11-20T12:45:21;99523.06;;;16.53;24.20
49423;BME280;36998;51.974;20.150;2022-11-20T12:54:06;99507.13;;;16.50;24.16
49423;BME280;36998;51.974;20.150;2022-11-20T12:56:45;99513.16;;;15.88;24.48
49423;BME280;36998;51.974;20.150;2022-11-20T13:02:25;99507.28;;;15.20;25.24
49423;BME280;36998;51.974;20.150;2022-11-20T13:07:28;99492.47;;;14.89;25.77
49423;BME280;36998;51.974;20.150;2022-11-20T13:09:55;99495.81;;;14.65;25.92
49423;BME280;36998;51.974;20.150;2022-11-20T13:12:38;99495.00;;;14.51;26.22
49423;BME280;36998;51.974;20.150;2022-11-20T13:15:18;99490.19;;;14.66;26.07
49423;BME280;36998;51.974;20.150;2022-11-20T13:17:58;99483.25;;;14.31;26.05
49423;BME280;36998;51.974;20.150;2022-11-20T13:20:24;99487.50;;;13.78;26.63
49423;BME280;36998;51.974;20.150;2022-11-20T13:22:52;99485.84;;;13.29;27.28
49423;BME280;36998;51.974;20.150;2022-11-20T13:25:39;99484.41;;;12.77;28.21
49423;BME280;36998;51.974;20.150;2022-11-20T13:28:29;99482.94;;;12.25;28.72
49423;BME280;36998;51.974;20.150;2022-11-20T13:30:56;99481.50;;;11.71;29.00
49423;BME280;36998;51.974;20.150;2022-11-20T13:33:32;99477.56;;;11.23;29.70
49423;BME280;36998;51.974;20.150;2022-11-20T13:36:04;99479.50;;;10.85;30.19
49423;BME280;36998;51.974;20.150;2022-11-20T13:38:49;99481.28;;;10.40;30.64
49423;BME280;36998;51.974;20.150;2022-11-20T13:41:36;99479.91;;;9.98;31.31
49423;BME280;36998;51.974;20.150;2022-11-20T13:46:36;99476.13;;;9.45;31.93
49423;BME280;36998;51.974;20.150;2022-11-20T13:49:07;99477.97;;;9.13;32.70
49423;BME280;36998;51.974;20.150;2022-11-20T13:54:19;99466.91;;;9.39;32.74
49423;BME280;36998;51.974;20.150;2022-11-20T13:57:07;99465.31;;;10.07;32.44
49423;BME280;36998;51.974;20.150;2022-11-20T14:02:36;99463.41;;;11.06;31.64
49423;BME280;36998;51.974;20.150;2022-11-20T14:05:03;99460.31;;;11.24;31.37